Time,TemperatureF,DewpointF,PressureIn,WindDirection,WindDirectionDegrees,WindSpeedMPH,WindSpeedGustMPH,Humidity,HourlyPrecipIn,Conditions,Clouds,dailyrainin,SoftwareType,DateUTC
2013-01-05 00:01:00,43.1,32.2,30.31,North,1,0.0,0.0,65,0.00,,,0.00,VWS V14.01,2013-01-05 06:01:00,
2013-01-05 00:06:00,43.2,31.9,30.32,North,1,0.0,0.0,64,0.00,,,0.00,VWS V14.01,2013-01-05 06:06:00,
2013-01-05 00:11:00,43.3,32.0,30.31,North,1,0.0,0.0,64,0.00,,,0.00,VWS V14.01,2013-01-05 06:11:00,
2013-01-05 00:16:00,43.4,32.0,30.32,North,2,0.0,0.0,64,0.00,,,0.00,VWS V14.01,2013-01-05 06:16:00,
2013-01-05 00:21:00,43.4,32.0,30.33,North,1,0.0,0.0,64,0.00,,,0.00,VWS V14.01,2013-01-05 06:21:00,
2013-01-05 00:26:00,43.4,31.7,30.32,North,1,0.0,0.0,63,0.00,,,0.00,VWS V14.01,2013-01-05 06:26:00,
2013-01-05 00:31:00,43.3,31.6,30.32,North,1,0.0,0.0,63,0.00,,,0.00,VWS V14.01,2013-01-05 06:31:00,
2013-01-05 00:36:00,43.3,31.6,30.32,North,1,0.0,0.0,63,0.00,,,0.00,VWS V14.01,2013-01-05 06:36:00,
2013-01-05 00:41:00,43.2,31.5,30.31,North,1,0.0,0.0,63,0.00,,,0.00,VWS V14.01,2013-01-05 06:41:00,
2013-01-05 00:46:00,43.2,31.9,30.30,North,5,0.0,0.0,64,0.00,,,0.00,VWS V14.01,2013-01-05 06:46:00,
2013-01-05 00:51:00,43.0,31.7,30.31,North,6,0.0,0.0,64,0.00,,,0.00,VWS V14.01,2013-01-05 06:51:00,
2013-01-05 00:56:00,42.9,32.0,30.30,North,4,0.0,0.0,65,0.00,,,0.00,VWS V14.01,2013-01-05 06:56:00,
2013-01-05 01:01:00,42.7,31.8,30.30,North,6,0.0,0.0,65,0.00,,,0.00,VWS V14.01,2013-01-05 07:01:00,
2013-01-05 01:06:00,42.7,31.4,30.31,North,6,0.0,0.0,64,0.00,,,0.00,VWS V14.01,2013-01-05 07:06:00,
2013-01-05 01:11:00,42.7,31.4,30.31,North,6,0.0,0.0,64,0.00,,,0.00,VWS V14.01,2013-01-05 07:11:00,
2013-01-05 01:16:00,42.6,31.7,30.31,North,6,0.0,0.0,65,0.00,,,0.00,VWS V14.01,2013-01-05 07:16:00,
2013-01-05 01:21:00,42.4,31.5,30.31,North,6,0.0,0.0,65,0.00,,,0.00,VWS V14.01,2013-01-05 07:21:00,
2013-01-05 01:26:00,42.2,31.7,30.32,North,6,0.0,0.0,66,0.00,,,0.00,VWS V14.01,2013-01-05 07:26:00,
2013-01-05 01:31:00,42.0,31.5,30.31,North,6,0.0,0.0,66,0.00,,,0.00,VWS V14.01,2013-01-05 07:31:00,
2013-01-05 01:36:00,41.9,31.0,30.31,North,6,0.0,0.0,65,0.00,,,0.00,VWS V14.01,2013-01-05 07:36:00,
2013-01-05 01:41:00,41.9,31.4,30.30,North,6,0.0,0.0,66,0.00,,,0.00,VWS V14.01,2013-01-05 07:41:00,
2013-01-05 01:46:00,41.7,31.6,30.31,North,6,0.0,0.0,67,0.00,,,0.00,VWS V14.01,2013-01-05 07:46:00,
2013-01-05 01:51:00,41.6,32.2,30.32,North,6,0.0,0.0,69,0.00,,,0.00,VWS V14.01,2013-01-05 07:51:00,
2013-01-05 01:56:00,41.3,31.9,30.31,North,6,0.0,0.0,69,0.00,,,0.00,VWS V14.01,2013-01-05 07:56:00,
2013-01-05 02:00:00,40.9,32.2,30.30,North,6,0.0,0.0,71,0.00,,,0.00,VWS V14.01,2013-01-05 08:00:00,
2013-01-05 02:05:00,40.4,32.8,30.31,North,6,0.0,0.0,74,0.00,,,0.00,VWS V14.01,2013-01-05 08:05:00,
2013-01-05 02:10:00,39.9,32.6,30.31,North,6,0.0,0.0,75,0.00,,,0.00,VWS V14.01,2013-01-05 08:10:00,
2013-01-05 02:15:00,39.4,32.5,30.31,North,6,0.0,0.0,76,0.00,,,0.00,VWS V14.01,2013-01-05 08:15:00,
2013-01-05 02:20:00,39.1,32.5,30.31,North,6,0.0,0.0,77,0.00,,,0.00,VWS V14.01,2013-01-05 08:20:00,
2013-01-05 02:25:00,38.8,32.5,30.29,North,6,0.0,0.0,78,0.00,,,0.00,VWS V14.01,2013-01-05 08:25:00,
2013-01-05 02:30:00,38.6,32.7,30.30,North,6,0.0,0.0,79,0.00,,,0.00,VWS V14.01,2013-01-05 08:30:00,
2013-01-05 02:35:00,38.4,31.8,30.30,North,6,0.0,0.0,77,0.00,,,0.00,VWS V14.01,2013-01-05 08:35:00,
2013-01-05 02:40:00,38.8,31.2,30.30,North,6,0.0,0.0,74,0.00,,,0.00,VWS V14.01,2013-01-05 08:40:00,
2013-01-05 02:45:00,39.3,31.0,30.30,North,6,0.0,0.0,72,0.00,,,0.00,VWS V14.01,2013-01-05 08:45:00,
2013-01-05 02:50:00,39.6,31.3,30.29,North,6,0.0,0.0,72,0.00,,,0.00,VWS V14.01,2013-01-05 08:50:00,
2013-01-05 02:55:00,39.7,31.1,30.30,North,6,0.0,0.0,71,0.00,,,0.00,VWS V14.01,2013-01-05 08:55:00,
2013-01-05 03:00:00,39.8,30.8,30.30,North,6,0.0,0.0,70,0.00,,,0.00,VWS V14.01,2013-01-05 09:00:00,
2013-01-05 03:05:00,39.9,30.6,30.30,North,6,0.0,0.0,69,0.00,,,0.00,VWS V14.01,2013-01-05 09:05:00,
2013-01-05 03:10:00,40.1,30.4,30.30,North,6,0.0,0.0,68,0.00,,,0.00,VWS V14.01,2013-01-05 09:10:00,
2013-01-05 03:15:00,40.2,30.5,30.31,North,6,0.0,0.0,68,0.00,,,0.00,VWS V14.01,2013-01-05 09:15:00,
2013-01-05 03:20:00,40.3,30.2,30.30,North,7,0.0,0.0,67,0.00,,,0.00,VWS V14.01,2013-01-05 09:20:00,
2013-01-05 03:25:00,40.4,30.3,30.30,NNE,15,0.0,3.0,67,0.00,,,0.00,VWS V14.01,2013-01-05 09:25:00,
2013-01-05 03:30:00,40.3,30.2,30.30,NNE,15,2.0,5.0,67,0.00,,,0.00,VWS V14.01,2013-01-05 09:30:00,
2013-01-05 03:35:00,40.3,29.9,30.29,NNE,15,0.0,1.0,66,0.00,,,0.00,VWS V14.01,2013-01-05 09:35:00,
2013-01-05 03:40:00,40.4,30.0,30.30,NNE,15,0.0,0.0,66,0.00,,,0.00,VWS V14.01,2013-01-05 09:40:00,
2013-01-05 03:45:00,40.4,30.0,30.30,NNE,15,0.0,1.0,66,0.00,,,0.00,VWS V14.01,2013-01-05 09:45:00,
2013-01-05 03:50:00,40.5,29.7,30.30,NNE,24,0.0,0.0,65,0.00,,,0.00,VWS V14.01,2013-01-05 09:50:00,
2013-01-05 03:55:00,40.5,29.7,30.30,NNE,33,0.0,0.0,65,0.00,,,0.00,VWS V14.01,2013-01-05 09:55:00,
2013-01-05 04:00:00,40.7,29.5,30.30,NNE,33,0.0,4.0,64,0.00,,,0.00,VWS V14.01,2013-01-05 10:00:00,
2013-01-05 04:05:00,40.7,29.1,30.30,NE,41,0.0,4.0,63,0.00,,,0.00,VWS V14.01,2013-01-05 10:05:00,
2013-01-05 04:10:00,40.8,29.6,30.29,NE,46,0.0,2.0,64,0.00,,,0.00,VWS V14.01,2013-01-05 10:10:00,
2013-01-05 04:15:00,40.9,29.3,30.30,NE,49,0.0,0.0,63,0.00,,,0.00,VWS V14.01,2013-01-05 10:15:00,
2013-01-05 04:20:00,40.9,29.3,30.29,NE,49,0.0,0.0,63,0.00,,,0.00,VWS V14.01,2013-01-05 10:20:00,
2013-01-05 04:25:00,40.9,29.3,30.30,NE,49,0.0,0.0,63,0.00,,,0.00,VWS V14.01,2013-01-05 10:25:00,
2013-01-05 04:30:00,41.0,29.4,30.29,ENE,60,0.0,0.0,63,0.00,,,0.00,VWS V14.01,2013-01-05 10:30:00,
2013-01-05 04:35:00,41.0,29.4,30.31,NE,55,0.0,4.0,63,0.00,,,0.00,VWS V14.01,2013-01-05 10:35:00,
2013-01-05 04:40:00,41.0,29.4,30.30,ENE,68,0.0,0.0,63,0.00,,,0.00,VWS V14.01,2013-01-05 10:40:00,
2013-01-05 04:45:00,41.1,29.5,30.30,ENE,59,0.0,0.0,63,0.00,,,0.00,VWS V14.01,2013-01-05 10:45:00,
2013-01-05 04:50:00,41.0,29.4,30.31,ENE,61,3.0,3.0,63,0.00,,,0.00,VWS V14.01,2013-01-05 10:50:00,
2013-01-05 04:55:00,40.9,29.3,30.30,NE,45,0.0,0.0,63,0.00,,,0.00,VWS V14.01,2013-01-05 10:55:00,
2013-01-05 05:00:00,40.9,29.3,30.30,NE,45,0.0,1.0,63,0.00,,,0.00,VWS V14.01,2013-01-05 11:00:00,
2013-01-05 05:05:00,40.8,29.2,30.30,NE,45,0.0,0.0,63,0.00,,,0.00,VWS V14.01,2013-01-05 11:05:00,
2013-01-05 05:10:00,40.7,29.5,30.30,NE,45,0.0,3.0,64,0.00,,,0.00,VWS V14.01,2013-01-05 11:10:00,
2013-01-05 05:15:00,40.7,29.9,30.30,NE,34,2.0,3.0,65,0.00,,,0.00,VWS V14.01,2013-01-05 11:15:00,
2013-01-05 05:20:00,40.6,29.8,30.30,NE,36,0.0,0.0,65,0.00,,,0.00,VWS V14.01,2013-01-05 11:20:00,
2013-01-05 05:25:00,40.5,29.3,30.30,NNE,25,3.0,4.0,64,0.00,,,0.00,VWS V14.01,2013-01-05 11:25:00,
2013-01-05 05:30:00,40.5,29.7,30.29,NNE,19,0.0,4.0,65,0.00,,,0.00,VWS V14.01,2013-01-05 11:30:00,
2013-01-05 05:35:00,40.4,29.6,30.30,NE,45,1.0,4.0,65,0.00,,,0.00,VWS V14.01,2013-01-05 11:35:00,
2013-01-05 05:40:00,40.5,29.3,30.31,NNE,12,2.0,4.0,64,0.00,,,0.00,VWS V14.01,2013-01-05 11:40:00,
2013-01-05 05:45:00,40.7,29.1,30.30,NE,50,3.0,3.0,63,0.00,,,0.00,VWS V14.01,2013-01-05 11:45:00,
2013-01-05 05:50:00,40.8,29.2,30.31,ENE,64,5.0,7.0,63,0.00,,,0.00,VWS V14.01,2013-01-05 11:50:00,
2013-01-05 05:55:00,40.8,29.2,30.29,NE,50,1.0,7.0,63,0.00,,,0.00,VWS V14.01,2013-01-05 11:55:00,
2013-01-05 06:00:00,40.8,29.2,30.31,NNE,27,0.0,0.0,63,0.00,,,0.00,VWS V14.01,2013-01-05 12:00:00,
2013-01-05 06:05:00,40.7,29.1,30.30,NE,55,0.0,0.0,63,0.00,,,0.00,VWS V14.01,2013-01-05 12:05:00,
2013-01-05 06:10:00,40.7,29.1,30.30,ENE,59,4.0,4.0,63,0.00,,,0.00,VWS V14.01,2013-01-05 12:10:00,
2013-01-05 06:15:00,40.7,29.1,30.29,ENE,58,3.0,6.0,63,0.00,,,0.00,VWS V14.01,2013-01-05 12:15:00,
2013-01-05 06:20:00,40.7,29.1,30.30,North,356,0.0,3.0,63,0.00,,,0.00,VWS V14.01,2013-01-05 12:20:00,
2013-01-05 06:25:00,40.8,29.2,30.31,NNE,12,2.0,3.0,63,0.00,,,0.00,VWS V14.01,2013-01-05 12:25:00,
2013-01-05 06:30:00,40.8,29.2,30.31,NNE,19,0.0,2.0,63,0.00,,,0.00,VWS V14.01,2013-01-05 12:30:00,
2013-01-05 06:35:00,40.9,29.3,30.31,NE,43,5.0,6.0,63,0.00,,,0.00,VWS V14.01,2013-01-05 12:35:00,
2013-01-05 06:40:00,40.9,29.3,30.32,NE,46,3.0,6.0,63,0.00,,,0.00,VWS V14.01,2013-01-05 12:40:00,
2013-01-05 06:45:00,40.9,28.9,30.31,NNE,22,0.0,5.0,62,0.00,,,0.00,VWS V14.01,2013-01-05 12:45:00,
2013-01-05 06:50:00,41.0,29.0,30.31,NE,36,1.0,6.0,62,0.00,,,0.00,VWS V14.01,2013-01-05 12:50:00,
2013-01-05 06:55:00,41.2,28.8,30.31,ENE,63,4.0,5.0,61,0.00,,,0.00,VWS V14.01,2013-01-05 12:55:00,
2013-01-05 07:00:00,41.3,28.5,30.32,ENE,65,4.0,8.0,60,0.00,,,0.00,VWS V14.01,2013-01-05 13:00:00,
2013-01-05 07:05:00,41.5,28.7,30.32,NE,53,3.0,5.0,60,0.00,,,0.00,VWS V14.01,2013-01-05 13:05:00,
2013-01-05 07:10:00,41.5,28.7,30.33,ENE,66,1.0,4.0,60,0.00,,,0.00,VWS V14.01,2013-01-05 13:10:00,
2013-01-05 07:15:00,41.6,28.8,30.33,ENE,63,5.0,6.0,60,0.00,,,0.00,VWS V14.01,2013-01-05 13:15:00,
2013-01-05 07:20:00,41.6,28.8,30.32,East,95,0.0,5.0,60,0.00,,,0.00,VWS V14.01,2013-01-05 13:20:00,
2013-01-05 07:25:00,41.6,28.8,30.31,ENE,57,6.0,9.0,60,0.00,,,0.00,VWS V14.01,2013-01-05 13:25:00,
2013-01-05 07:30:00,41.6,29.2,30.32,ENE,75,4.0,6.0,61,0.00,,,0.00,VWS V14.01,2013-01-05 13:30:00,
2013-01-05 07:35:00,41.5,29.5,30.33,NE,34,3.0,4.0,62,0.00,,,0.00,VWS V14.01,2013-01-05 13:35:00,
2013-01-05 07:40:00,41.6,29.2,30.33,NE,52,4.0,6.0,61,0.00,,,0.00,VWS V14.01,2013-01-05 13:40:00,
2013-01-05 07:45:00,41.6,29.2,30.33,ENE,61,3.0,9.0,61,0.00,,,0.00,VWS V14.01,2013-01-05 13:45:00,
2013-01-05 07:50:00,41.8,29.4,30.32,ENE,59,4.0,5.0,61,0.00,,,0.00,VWS V14.01,2013-01-05 13:50:00,
2013-01-05 07:55:00,41.9,29.5,30.33,NNE,19,0.0,3.0,61,0.00,,,0.00,VWS V14.01,2013-01-05 13:55:00,
2013-01-05 08:00:00,42.1,29.6,30.33,ENE,63,4.0,5.0,61,0.00,,,0.00,VWS V14.01,2013-01-05 14:00:00,
2013-01-05 08:05:00,42.3,29.4,30.33,NNE,30,0.0,2.0,60,0.00,,,0.00,VWS V14.01,2013-01-05 14:05:00,
2013-01-05 08:10:00,42.8,29.9,30.33,ENE,61,6.0,8.0,60,0.00,,,0.00,VWS V14.01,2013-01-05 14:10:00,
2013-01-05 08:15:00,43.2,29.9,30.34,East,94,0.0,6.0,59,0.00,,,0.00,VWS V14.01,2013-01-05 14:15:00,
2013-01-05 08:20:00,43.6,29.8,30.35,NE,55,5.0,6.0,58,0.00,,,0.00,VWS V14.01,2013-01-05 14:20:00,
2013-01-05 08:25:00,43.9,30.1,30.35,ENE,76,5.0,5.0,58,0.00,,,0.00,VWS V14.01,2013-01-05 14:25:00,
2013-01-05 08:30:00,44.1,29.9,30.35,NE,47,0.0,7.0,57,0.00,,,0.00,VWS V14.01,2013-01-05 14:30:00,
2013-01-05 08:35:00,44.4,30.1,30.34,ENE,76,0.0,4.0,57,0.00,,,0.00,VWS V14.01,2013-01-05 14:35:00,
2013-01-05 08:40:00,44.6,29.9,30.34,NE,52,3.0,4.0,56,0.00,,,0.00,VWS V14.01,2013-01-05 14:40:00,
2013-01-05 08:45:00,45.0,30.3,30.34,East,81,4.0,4.0,56,0.00,,,0.00,VWS V14.01,2013-01-05 14:45:00,
2013-01-05 08:50:00,45.4,31.1,30.34,ENE,78,4.0,5.0,57,0.00,,,0.00,VWS V14.01,2013-01-05 14:50:00,
2013-01-05 08:55:00,45.8,31.0,30.34,ENE,63,0.0,6.0,56,0.00,,,0.00,VWS V14.01,2013-01-05 14:55:00,
2013-01-05 09:00:00,46.3,31.0,30.34,ENE,72,4.0,6.0,55,0.00,,,0.00,VWS V14.01,2013-01-05 15:00:00,
2013-01-05 09:05:00,46.6,30.9,30.33,ENE,62,5.0,8.0,54,0.00,,,0.00,VWS V14.01,2013-01-05 15:05:00,
2013-01-05 09:10:00,47.0,31.2,30.33,ESE,108,2.0,4.0,54,0.00,,,0.00,VWS V14.01,2013-01-05 15:10:00,
2013-01-05 09:15:00,47.4,31.1,30.32,ESE,114,4.0,5.0,53,0.00,,,0.00,VWS V14.01,2013-01-05 15:15:00,
2013-01-05 09:20:00,47.8,31.0,30.33,ENE,60,6.0,7.0,52,0.00,,,0.00,VWS V14.01,2013-01-05 15:20:00,
2013-01-05 09:25:00,47.9,30.7,30.32,ENE,70,2.0,4.0,51,0.00,,,0.00,VWS V14.01,2013-01-05 15:25:00,
2013-01-05 09:30:00,48.2,31.4,30.32,ENE,63,4.0,4.0,52,0.00,,,0.00,VWS V14.01,2013-01-05 15:30:00,
2013-01-05 09:35:00,48.4,30.6,30.33,ENE,75,0.0,3.0,50,0.00,,,0.00,VWS V14.01,2013-01-05 15:35:00,
2013-01-05 09:40:00,48.5,30.7,30.32,NE,56,6.0,6.0,50,0.00,,,0.00,VWS V14.01,2013-01-05 15:40:00,
2013-01-05 09:45:00,48.7,30.9,30.32,ENE,74,2.0,3.0,50,0.00,,,0.00,VWS V14.01,2013-01-05 15:45:00,
2013-01-05 09:50:00,49.1,31.3,30.33,NE,54,2.0,6.0,50,0.00,,,0.00,VWS V14.01,2013-01-05 15:50:00,
2013-01-05 09:55:00,49.5,31.6,30.32,NE,50,3.0,6.0,50,0.00,,,0.00,VWS V14.01,2013-01-05 15:55:00,
2013-01-05 10:00:00,50.0,31.6,30.33,NE,50,5.0,7.0,49,0.00,,,0.00,VWS V14.01,2013-01-05 16:00:00,
2013-01-05 10:05:00,50.1,31.2,30.32,ENE,59,4.0,6.0,48,0.00,,,0.00,VWS V14.01,2013-01-05 16:05:00,
2013-01-05 10:10:00,50.4,31.5,30.33,ENE,71,0.0,3.0,48,0.00,,,0.00,VWS V14.01,2013-01-05 16:10:00,
2013-01-05 10:15:00,50.5,31.6,30.33,NE,47,0.0,3.0,48,0.00,,,0.00,VWS V14.01,2013-01-05 16:15:00,
2013-01-05 10:20:00,50.7,32.2,30.34,ENE,60,0.0,3.0,49,0.00,,,0.00,VWS V14.01,2013-01-05 16:20:00,
2013-01-05 10:25:00,50.7,32.8,30.33,ENE,60,0.0,3.0,50,0.00,,,0.00,VWS V14.01,2013-01-05 16:25:00,
2013-01-05 10:30:00,50.8,32.3,30.32,NNE,18,0.0,4.0,49,0.00,,,0.00,VWS V14.01,2013-01-05 16:30:00,
2013-01-05 10:35:00,50.9,32.4,30.33,ENE,68,0.0,0.0,49,0.00,,,0.00,VWS V14.01,2013-01-05 16:35:00,
2013-01-05 10:40:00,51.2,32.2,30.33,NE,50,3.0,4.0,48,0.00,,,0.00,VWS V14.01,2013-01-05 16:40:00,
2013-01-05 10:45:00,51.3,31.2,30.33,ENE,60,0.0,1.0,46,0.00,,,0.00,VWS V14.01,2013-01-05 16:45:00,
2013-01-05 10:50:00,51.4,31.3,30.34,North,11,3.0,3.0,46,0.00,,,0.00,VWS V14.01,2013-01-05 16:50:00,
2013-01-05 10:55:00,51.7,31.6,30.32,NE,49,0.0,3.0,46,0.00,,,0.00,VWS V14.01,2013-01-05 16:55:00,
2013-01-05 11:00:00,52.1,32.0,30.32,ENE,60,2.0,4.0,46,0.00,,,0.00,VWS V14.01,2013-01-05 17:00:00,
2013-01-05 11:05:00,52.3,32.2,30.32,ENE,61,0.0,1.0,46,0.00,,,0.00,VWS V14.01,2013-01-05 17:05:00,
2013-01-05 11:10:00,52.5,31.2,30.31,NE,46,4.0,5.0,44,0.00,,,0.00,VWS V14.01,2013-01-05 17:10:00,
2013-01-05 11:15:00,52.7,32.5,30.30,ENE,61,1.0,2.0,46,0.00,,,0.00,VWS V14.01,2013-01-05 17:15:00,
2013-01-05 11:20:00,52.8,32.1,30.30,NNE,21,2.0,4.0,45,0.00,,,0.00,VWS V14.01,2013-01-05 17:20:00,
2013-01-05 11:25:00,53.0,32.8,30.29,North,0,0.0,0.0,46,0.00,,,0.00,VWS V14.01,2013-01-05 17:25:00,
2013-01-05 11:30:00,52.9,33.2,30.29,NNE,26,0.0,0.0,47,0.00,,,0.00,VWS V14.01,2013-01-05 17:30:00,
2013-01-05 11:35:00,52.8,33.2,30.29,NNE,26,0.0,0.0,47,0.00,,,0.00,VWS V14.01,2013-01-05 17:35:00,
2013-01-05 11:40:00,52.7,33.6,30.29,NE,42,0.0,4.0,48,0.00,,,0.00,VWS V14.01,2013-01-05 17:40:00,
2013-01-05 11:45:00,52.4,33.3,30.28,NE,49,0.0,3.0,48,0.00,,,0.00,VWS V14.01,2013-01-05 17:45:00,
2013-01-05 11:50:00,52.3,33.7,30.28,NE,47,5.0,5.0,49,0.00,,,0.00,VWS V14.01,2013-01-05 17:50:00,
2013-01-05 11:55:00,52.3,33.2,30.27,NNE,29,0.0,0.0,48,0.00,,,0.00,VWS V14.01,2013-01-05 17:55:00,
2013-01-05 12:00:00,52.3,33.7,30.27,NE,55,1.0,1.0,49,0.00,,,0.00,VWS V14.01,2013-01-05 18:00:00,
2013-01-05 12:05:00,52.5,32.9,30.28,NE,51,2.0,6.0,47,0.00,,,0.00,VWS V14.01,2013-01-05 18:05:00,
2013-01-05 12:10:00,52.6,33.5,30.27,ENE,59,0.0,4.0,48,0.00,,,0.00,VWS V14.01,2013-01-05 18:10:00,
2013-01-05 12:15:00,52.7,33.0,30.27,NE,37,5.0,8.0,47,0.00,,,0.00,VWS V14.01,2013-01-05 18:15:00,
2013-01-05 12:20:00,52.5,32.9,30.27,ENE,65,1.0,5.0,47,0.00,,,0.00,VWS V14.01,2013-01-05 18:20:00,
2013-01-05 12:25:00,52.4,32.8,30.26,NE,55,5.0,5.0,47,0.00,,,0.00,VWS V14.01,2013-01-05 18:25:00,
2013-01-05 12:30:00,52.4,33.3,30.26,NE,56,4.0,5.0,48,0.00,,,0.00,VWS V14.01,2013-01-05 18:30:00,
2013-01-05 12:35:00,52.5,34.9,30.27,ENE,75,0.0,0.0,51,0.00,,,0.00,VWS V14.01,2013-01-05 18:35:00,
2013-01-05 12:40:00,52.8,34.7,30.27,NE,43,0.0,6.0,50,0.00,,,0.00,VWS V14.01,2013-01-05 18:40:00,
2013-01-05 12:45:00,53.0,33.8,30.27,North,359,0.0,0.0,48,0.00,,,0.00,VWS V14.01,2013-01-05 18:45:00,
2013-01-05 12:50:00,53.2,34.0,30.27,NE,48,0.0,0.0,48,0.00,,,0.00,VWS V14.01,2013-01-05 18:50:00,
2013-01-05 12:55:00,53.4,34.2,30.26,North,358,0.0,3.0,48,0.00,,,0.00,VWS V14.01,2013-01-05 18:55:00,
2013-01-05 13:00:00,53.6,34.4,30.26,North,0,0.0,4.0,48,0.00,,,0.00,VWS V14.01,2013-01-05 19:00:00,
2013-01-05 13:05:00,53.7,34.0,30.24,NNE,19,6.0,7.0,47,0.00,,,0.00,VWS V14.01,2013-01-05 19:05:00,
2013-01-05 13:10:00,53.7,35.0,30.25,North,0,0.0,0.0,49,0.00,,,0.00,VWS V14.01,2013-01-05 19:10:00,
2013-01-05 13:15:00,53.6,34.9,30.25,NE,44,2.0,6.0,49,0.00,,,0.00,VWS V14.01,2013-01-05 19:15:00,
2013-01-05 13:20:00,53.6,34.9,30.24,East,98,2.0,2.0,49,0.00,,,0.00,VWS V14.01,2013-01-05 19:20:00,
2013-01-05 13:25:00,53.7,35.5,30.23,ENE,65,3.0,5.0,50,0.00,,,0.00,VWS V14.01,2013-01-05 19:25:00,
2013-01-05 13:30:00,53.6,35.4,30.23,East,97,0.0,4.0,50,0.00,,,0.00,VWS V14.01,2013-01-05 19:30:00,
2013-01-05 13:35:00,53.7,36.0,30.25,ESE,103,0.0,0.0,51,0.00,,,0.00,VWS V14.01,2013-01-05 19:35:00,
2013-01-05 13:40:00,53.8,35.6,30.23,East,93,0.0,1.0,50,0.00,,,0.00,VWS V14.01,2013-01-05 19:40:00,
2013-01-05 13:45:00,53.7,35.0,30.23,East,89,1.0,4.0,49,0.00,,,0.00,VWS V14.01,2013-01-05 19:45:00,
2013-01-05 13:50:00,53.5,34.8,30.23,NNE,32,0.0,7.0,49,0.00,,,0.00,VWS V14.01,2013-01-05 19:50:00,
2013-01-05 13:55:00,53.3,35.2,30.24,ENE,59,2.0,2.0,50,0.00,,,0.00,VWS V14.01,2013-01-05 19:55:00,
2013-01-05 14:00:00,53.2,35.6,30.24,East,93,2.0,2.0,51,0.00,,,0.00,VWS V14.01,2013-01-05 20:00:00,
2013-01-05 14:05:00,53.0,35.4,30.25,East,85,0.0,1.0,51,0.00,,,0.00,VWS V14.01,2013-01-05 20:05:00,
2013-01-05 14:10:00,53.0,35.9,30.24,NE,51,0.0,0.0,52,0.00,,,0.00,VWS V14.01,2013-01-05 20:10:00,
2013-01-05 14:15:00,52.9,35.8,30.25,NE,47,0.0,0.0,52,0.00,,,0.00,VWS V14.01,2013-01-05 20:15:00,
2013-01-05 14:20:00,52.9,35.8,30.25,NE,40,0.0,0.0,52,0.00,,,0.00,VWS V14.01,2013-01-05 20:20:00,
2013-01-05 14:25:00,52.9,35.8,30.25,NE,55,0.0,1.0,52,0.00,,,0.00,VWS V14.01,2013-01-05 20:25:00,
2013-01-05 14:30:00,53.0,35.9,30.24,NE,55,0.0,0.0,52,0.00,,,0.00,VWS V14.01,2013-01-05 20:30:00,
2013-01-05 14:35:00,53.1,36.0,30.25,NE,55,0.0,0.0,52,0.00,,,0.00,VWS V14.01,2013-01-05 20:35:00,
2013-01-05 14:40:00,53.3,36.6,30.25,North,1,0.0,2.0,53,0.00,,,0.00,VWS V14.01,2013-01-05 20:40:00,
2013-01-05 14:45:00,53.4,36.2,30.26,North,2,3.0,5.0,52,0.00,,,0.00,VWS V14.01,2013-01-05 20:45:00,
2013-01-05 14:50:00,53.4,35.7,30.26,ENE,57,0.0,0.0,51,0.00,,,0.00,VWS V14.01,2013-01-05 20:50:00,
2013-01-05 14:55:00,53.4,35.7,30.27,ENE,57,0.0,0.0,51,0.00,,,0.00,VWS V14.01,2013-01-05 20:55:00,
2013-01-05 15:00:00,53.3,35.2,30.25,ENE,60,1.0,3.0,50,0.00,,,0.00,VWS V14.01,2013-01-05 21:00:00,
2013-01-05 15:05:00,53.1,35.5,30.25,ENE,69,0.0,0.0,51,0.00,,,0.00,VWS V14.01,2013-01-05 21:05:00,
2013-01-05 15:10:00,53.0,35.9,30.26,ENE,71,0.0,0.0,52,0.00,,,0.00,VWS V14.01,2013-01-05 21:10:00,
2013-01-05 15:15:00,52.8,35.7,30.28,North,0,0.0,0.0,52,0.00,,,0.00,VWS V14.01,2013-01-05 21:15:00,
2013-01-05 15:20:00,52.8,36.2,30.29,North,0,0.0,0.0,53,0.00,,,0.00,VWS V14.01,2013-01-05 21:20:00,
2013-01-05 15:25:00,52.8,36.6,30.29,North,357,0.0,0.0,54,0.00,,,0.00,VWS V14.01,2013-01-05 21:25:00,
2013-01-05 15:30:00,52.8,37.1,30.28,NNW,339,0.0,0.0,55,0.00,,,0.00,VWS V14.01,2013-01-05 21:30:00,
2013-01-05 15:35:00,52.7,37.0,30.29,NNW,347,0.0,0.0,55,0.00,,,0.00,VWS V14.01,2013-01-05 21:35:00,
2013-01-05 15:40:00,52.7,37.0,30.28,NNW,343,0.0,0.0,55,0.00,,,0.00,VWS V14.01,2013-01-05 21:40:00,
2013-01-05 15:45:00,52.6,36.9,30.29,NNW,343,0.0,0.0,55,0.00,,,0.00,VWS V14.01,2013-01-05 21:45:00,
2013-01-05 15:50:00,52.6,36.9,30.29,NNW,343,0.0,0.0,55,0.00,,,0.00,VWS V14.01,2013-01-05 21:50:00,
2013-01-05 15:55:00,52.5,37.3,30.27,NNW,347,0.0,0.0,56,0.00,,,0.00,VWS V14.01,2013-01-05 21:55:00,
2013-01-05 16:00:00,52.3,37.1,30.26,NE,41,0.0,0.0,56,0.00,,,0.00,VWS V14.01,2013-01-05 22:00:00,
2013-01-05 16:05:00,52.2,37.9,30.26,NE,41,0.0,0.0,58,0.00,,,0.00,VWS V14.01,2013-01-05 22:05:00,
2013-01-05 16:10:00,52.1,37.8,30.27,NE,41,0.0,0.0,58,0.00,,,0.00,VWS V14.01,2013-01-05 22:10:00,
2013-01-05 16:15:00,52.0,37.7,30.27,NE,41,0.0,0.0,58,0.00,,,0.00,VWS V14.01,2013-01-05 22:15:00,
2013-01-05 16:20:00,51.9,37.6,30.26,NE,41,0.0,0.0,58,0.00,,,0.00,VWS V14.01,2013-01-05 22:20:00,
2013-01-05 16:25:00,51.9,37.6,30.27,NE,41,0.0,0.0,58,0.00,,,0.00,VWS V14.01,2013-01-05 22:25:00,
2013-01-05 16:30:00,51.9,37.6,30.28,NE,41,0.0,0.0,58,0.00,,,0.00,VWS V14.01,2013-01-05 22:30:00,
2013-01-05 16:35:00,51.9,38.0,30.27,NE,41,0.0,0.0,59,0.00,,,0.00,VWS V14.01,2013-01-05 22:35:00,
2013-01-05 16:40:00,51.8,38.4,30.29,NE,41,0.0,0.0,60,0.00,,,0.00,VWS V14.01,2013-01-05 22:40:00,
2013-01-05 16:45:00,51.7,38.3,30.28,NE,41,0.0,0.0,60,0.00,,,0.00,VWS V14.01,2013-01-05 22:45:00,
2013-01-05 16:50:00,51.5,38.5,30.28,NE,41,0.0,0.0,61,0.00,,,0.00,VWS V14.01,2013-01-05 22:50:00,
2013-01-05 16:55:00,51.4,38.0,30.27,NE,41,0.0,0.0,60,0.00,,,0.00,VWS V14.01,2013-01-05 22:55:00,
2013-01-05 17:00:00,51.2,38.2,30.28,NE,41,0.0,0.0,61,0.00,,,0.00,VWS V14.01,2013-01-05 23:00:00,
2013-01-05 17:05:00,51.1,38.1,30.29,NE,41,0.0,0.0,61,0.00,,,0.00,VWS V14.01,2013-01-05 23:05:00,
2013-01-05 17:10:00,51.0,38.0,30.29,NE,41,0.0,0.0,61,0.00,,,0.00,VWS V14.01,2013-01-05 23:10:00,
2013-01-05 17:15:00,50.9,38.4,30.28,NE,41,0.0,0.0,62,0.00,,,0.00,VWS V14.01,2013-01-05 23:15:00,
2013-01-05 17:20:00,50.8,38.3,30.29,NE,41,0.0,0.0,62,0.00,,,0.00,VWS V14.01,2013-01-05 23:20:00,
2013-01-05 17:25:00,50.6,38.9,30.28,NE,41,0.0,0.0,64,0.00,,,0.00,VWS V14.01,2013-01-05 23:25:00,
2013-01-05 17:30:00,50.5,39.2,30.29,NE,41,0.0,0.0,65,0.00,,,0.00,VWS V14.01,2013-01-05 23:30:00,
2013-01-05 17:35:00,50.4,39.5,30.27,NE,41,0.0,0.0,66,0.00,,,0.00,VWS V14.01,2013-01-05 23:35:00,
2013-01-05 17:40:00,50.3,39.8,30.28,NE,41,0.0,0.0,67,0.00,,,0.00,VWS V14.01,2013-01-05 23:40:00,
2013-01-05 17:45:00,50.1,40.0,30.27,NE,41,0.0,0.0,68,0.00,,,0.00,VWS V14.01,2013-01-05 23:45:00,
2013-01-05 17:50:00,49.9,39.8,30.27,NE,53,0.0,0.0,68,0.00,,,0.00,VWS V14.01,2013-01-05 23:50:00,
2013-01-05 17:55:00,49.9,39.4,30.26,NE,53,0.0,0.0,67,0.00,,,0.00,VWS V14.01,2013-01-05 23:55:00,
2013-01-05 18:00:00,49.9,39.0,30.28,NE,52,0.0,0.0,66,0.00,,,0.00,VWS V14.01,2013-01-06 00:00:00,
2013-01-05 18:05:00,49.9,39.0,30.28,NE,53,0.0,0.0,66,0.00,,,0.00,VWS V14.01,2013-01-06 00:05:00,
2013-01-05 18:10:00,50.0,39.1,30.30,NE,52,0.0,0.0,66,0.00,,,0.00,VWS V14.01,2013-01-06 00:10:00,
2013-01-05 18:15:00,50.0,39.1,30.30,NE,52,0.0,0.0,66,0.00,,,0.00,VWS V14.01,2013-01-06 00:15:00,
2013-01-05 18:20:00,50.1,38.8,30.30,North,3,0.0,0.0,65,0.00,,,0.00,VWS V14.01,2013-01-06 00:20:00,
2013-01-05 18:25:00,50.1,38.4,30.31,North,1,0.0,0.0,64,0.00,,,0.00,VWS V14.01,2013-01-06 00:25:00,
2013-01-05 18:30:00,50.1,38.8,30.31,North,355,0.0,0.0,65,0.00,,,0.00,VWS V14.01,2013-01-06 00:30:00,
2013-01-05 18:35:00,50.1,38.4,30.31,North,355,0.0,0.0,64,0.00,,,0.00,VWS V14.01,2013-01-06 00:35:00,
2013-01-05 18:40:00,50.1,38.4,30.29,North,357,0.0,0.0,64,0.00,,,0.00,VWS V14.01,2013-01-06 00:40:00,
2013-01-05 18:45:00,50.0,38.3,30.30,North,357,0.0,0.0,64,0.00,,,0.00,VWS V14.01,2013-01-06 00:45:00,
2013-01-05 18:50:00,50.0,38.7,30.29,ENE,69,0.0,0.0,65,0.00,,,0.00,VWS V14.01,2013-01-06 00:50:00,
2013-01-05 18:55:00,49.9,38.6,30.29,ENE,69,1.0,1.0,65,0.00,,,0.00,VWS V14.01,2013-01-06 00:55:00,
2013-01-05 19:00:00,49.9,39.0,30.27,ENE,77,0.0,0.0,66,0.00,,,0.00,VWS V14.01,2013-01-06 01:00:00,
2013-01-05 19:05:00,49.8,38.1,30.27,ENE,64,0.0,2.0,64,0.00,,,0.00,VWS V14.01,2013-01-06 01:05:00,
2013-01-05 19:10:00,50.0,37.9,30.25,East,90,0.0,0.0,63,0.00,,,0.00,VWS V14.01,2013-01-06 01:10:00,
2013-01-05 19:15:00,50.2,37.3,30.27,NNE,28,0.0,3.0,61,0.00,,,0.00,VWS V14.01,2013-01-06 01:15:00,
2013-01-05 19:20:00,50.4,37.5,30.27,North,0,0.0,0.0,61,0.00,,,0.00,VWS V14.01,2013-01-06 01:20:00,
2013-01-05 19:25:00,50.6,37.7,30.29,North,3,0.0,0.0,61,0.00,,,0.00,VWS V14.01,2013-01-06 01:25:00,
2013-01-05 19:30:00,50.5,37.6,30.28,North,3,0.0,0.0,61,0.00,,,0.00,VWS V14.01,2013-01-06 01:30:00,
2013-01-05 19:35:00,50.5,37.6,30.28,ENE,66,4.0,4.0,61,0.00,,,0.00,VWS V14.01,2013-01-06 01:35:00,
2013-01-05 19:40:00,50.4,37.9,30.26,ENE,69,0.0,0.0,62,0.00,,,0.00,VWS V14.01,2013-01-06 01:40:00,
2013-01-05 19:45:00,50.4,37.5,30.25,ENE,58,0.0,0.0,61,0.00,,,0.00,VWS V14.01,2013-01-06 01:45:00,
2013-01-05 19:50:00,50.4,37.5,30.24,East,91,0.0,0.0,61,0.00,,,0.00,VWS V14.01,2013-01-06 01:50:00,
2013-01-05 19:55:00,50.4,37.5,30.25,ENE,61,5.0,6.0,61,0.00,,,0.00,VWS V14.01,2013-01-06 01:55:00,
2013-01-05 20:00:00,50.4,37.5,30.25,NE,46,5.0,5.0,61,0.00,,,0.00,VWS V14.01,2013-01-06 02:00:00,
2013-01-05 20:05:00,50.5,37.6,30.26,North,1,4.0,4.0,61,0.00,,,0.00,VWS V14.01,2013-01-06 02:05:00,
2013-01-05 20:10:00,50.6,37.7,30.27,North,354,2.0,2.0,61,0.00,,,0.00,VWS V14.01,2013-01-06 02:10:00,
2013-01-05 20:15:00,50.6,37.2,30.26,North,350,0.0,0.0,60,0.00,,,0.00,VWS V14.01,2013-01-06 02:15:00,
2013-01-05 20:20:00,50.6,37.2,30.28,North,5,5.0,5.0,60,0.00,,,0.00,VWS V14.01,2013-01-06 02:20:00,
2013-01-05 20:25:00,50.6,37.2,30.24,NNE,30,2.0,2.0,60,0.00,,,0.00,VWS V14.01,2013-01-06 02:25:00,
2013-01-05 20:30:00,50.6,37.2,30.26,NE,51,6.0,6.0,60,0.00,,,0.00,VWS V14.01,2013-01-06 02:30:00,
2013-01-05 20:35:00,50.6,37.2,30.25,NNE,23,3.0,4.0,60,0.00,,,0.00,VWS V14.01,2013-01-06 02:35:00,
2013-01-05 20:40:00,50.6,37.2,30.24,NNE,14,0.0,0.0,60,0.00,,,0.00,VWS V14.01,2013-01-06 02:40:00,
2013-01-05 20:45:00,50.6,37.2,30.25,NNE,15,3.0,3.0,60,0.00,,,0.00,VWS V14.01,2013-01-06 02:45:00,
2013-01-05 20:50:00,50.6,37.2,30.25,North,1,0.0,0.0,60,0.00,,,0.00,VWS V14.01,2013-01-06 02:50:00,
2013-01-05 20:55:00,50.6,37.2,30.26,NE,35,5.0,5.0,60,0.00,,,0.00,VWS V14.01,2013-01-06 02:55:00,
2013-01-05 21:00:00,50.6,37.2,30.23,ENE,59,6.0,6.0,60,0.00,,,0.00,VWS V14.01,2013-01-06 03:00:00,
2013-01-05 21:05:00,50.5,37.2,30.24,NE,54,0.0,0.0,60,0.00,,,0.00,VWS V14.01,2013-01-06 03:05:00,
2013-01-05 21:10:00,50.4,37.0,30.25,NNE,32,0.0,0.0,60,0.00,,,0.00,VWS V14.01,2013-01-06 03:10:00,
2013-01-05 21:15:00,50.3,37.0,30.25,ENE,63,2.0,3.0,60,0.00,,,0.00,VWS V14.01,2013-01-06 03:15:00,
2013-01-05 21:20:00,50.2,36.9,30.25,NE,54,0.0,3.0,60,0.00,,,0.00,VWS V14.01,2013-01-06 03:20:00,
2013-01-05 21:25:00,50.1,36.8,30.23,ENE,70,0.0,3.0,60,0.00,,,0.00,VWS V14.01,2013-01-06 03:25:00,
2013-01-05 21:30:00,50.1,36.8,30.25,NE,36,0.0,0.0,60,0.00,,,0.00,VWS V14.01,2013-01-06 03:30:00,
2013-01-05 21:35:00,50.1,36.8,30.25,NE,42,0.0,0.0,60,0.00,,,0.00,VWS V14.01,2013-01-06 03:35:00,
2013-01-05 21:40:00,50.0,36.2,30.24,ENE,63,0.0,0.0,59,0.00,,,0.00,VWS V14.01,2013-01-06 03:40:00,
2013-01-05 21:45:00,50.0,36.2,30.23,East,80,2.0,4.0,59,0.00,,,0.00,VWS V14.01,2013-01-06 03:45:00,
2013-01-05 21:50:00,49.9,36.2,30.24,ENE,68,0.0,0.0,59,0.00,,,0.00,VWS V14.01,2013-01-06 03:50:00,
2013-01-05 21:55:00,49.9,36.6,30.25,NE,53,1.0,1.0,60,0.00,,,0.00,VWS V14.01,2013-01-06 03:55:00,
2013-01-05 22:00:00,49.7,36.4,30.24,NE,53,0.0,0.0,60,0.00,,,0.00,VWS V14.01,2013-01-06 04:00:00,
2013-01-05 22:05:00,49.6,36.7,30.24,NE,53,0.0,2.0,61,0.00,,,0.00,VWS V14.01,2013-01-06 04:05:00,
2013-01-05 22:10:00,49.4,36.5,30.23,NE,51,2.0,5.0,61,0.00,,,0.00,VWS V14.01,2013-01-06 04:10:00,
2013-01-05 22:15:00,49.3,36.8,30.24,NE,53,1.0,1.0,62,0.00,,,0.00,VWS V14.01,2013-01-06 04:15:00,
2013-01-05 22:20:00,49.2,36.3,30.21,ENE,65,2.0,4.0,61,0.00,,,0.00,VWS V14.01,2013-01-06 04:20:00,
2013-01-05 22:25:00,49.2,36.8,30.22,NE,37,0.0,5.0,62,0.00,,,0.00,VWS V14.01,2013-01-06 04:25:00,
2013-01-05 22:30:00,49.2,36.8,30.21,North,10,0.0,1.0,62,0.00,,,0.00,VWS V14.01,2013-01-06 04:30:00,
2013-01-05 22:35:00,49.2,36.8,30.22,North,9,0.0,0.0,62,0.00,,,0.00,VWS V14.01,2013-01-06 04:35:00,
2013-01-05 22:40:00,49.1,36.7,30.22,ENE,67,0.0,0.0,62,0.00,,,0.00,VWS V14.01,2013-01-06 04:40:00,
2013-01-05 22:45:00,49.0,37.0,30.22,ENE,67,0.0,0.0,63,0.00,,,0.00,VWS V14.01,2013-01-06 04:45:00,
2013-01-05 22:50:00,49.0,36.6,30.23,ENE,67,0.0,0.0,62,0.00,,,0.00,VWS V14.01,2013-01-06 04:50:00,
2013-01-05 22:55:00,49.0,37.0,30.22,ENE,67,0.0,0.0,63,0.00,,,0.00,VWS V14.01,2013-01-06 04:55:00,
2013-01-05 23:00:00,49.0,36.6,30.22,NNE,23,0.0,0.0,62,0.00,,,0.00,VWS V14.01,2013-01-06 05:00:00,
2013-01-05 23:01:00,49.0,37.0,30.22,NNE,23,0.0,0.0,63,0.00,,,0.00,VWS V14.01,2013-01-06 05:01:00,
2013-01-05 23:02:00,49.0,37.0,30.21,NNE,24,0.0,1.0,63,0.00,,,0.00,VWS V14.01,2013-01-06 05:02:00,
2013-01-05 23:07:00,49.0,36.6,30.22,NNE,24,0.0,0.0,62,0.00,,,0.00,VWS V14.01,2013-01-06 05:07:00,
2013-01-05 23:12:00,48.9,36.9,30.23,NNE,26,0.0,0.0,63,0.00,,,0.00,VWS V14.01,2013-01-06 05:12:00,
2013-01-05 23:17:00,48.8,36.8,30.21,ENE,69,0.0,4.0,63,0.00,,,0.00,VWS V14.01,2013-01-06 05:17:00,
2013-01-05 23:22:00,48.8,36.8,30.20,East,79,0.0,0.0,63,0.00,,,0.00,VWS V14.01,2013-01-06 05:22:00,
2013-01-05 23:27:00,48.7,36.7,30.20,ENE,77,1.0,3.0,63,0.00,,,0.00,VWS V14.01,2013-01-06 05:27:00,
2013-01-05 23:32:00,48.7,36.7,30.20,ENE,77,0.0,0.0,63,0.00,,,0.00,VWS V14.01,2013-01-06 05:32:00,
2013-01-05 23:37:00,48.7,37.1,30.21,ENE,77,0.0,0.0,64,0.00,,,0.00,VWS V14.01,2013-01-06 05:37:00,
2013-01-05 23:42:00,48.7,37.1,30.21,ENE,77,0.0,0.0,64,0.00,,,0.00,VWS V14.01,2013-01-06 05:42:00,
2013-01-05 23:47:00,48.6,37.0,30.20,ENE,77,0.0,0.0,64,0.00,,,0.00,VWS V14.01,2013-01-06 05:47:00,
2013-01-05 23:52:00,48.5,37.3,30.21,ENE,77,0.0,0.0,65,0.00,,,0.00,VWS V14.01,2013-01-06 05:52:00,
2013-01-05 23:57:00,48.4,37.2,30.20,ENE,77,0.0,0.0,65,0.00,,,0.00,VWS V14.01,2013-01-06 05:57:00,